Time;durP1;ratioP1;P1;durP2;ratioP2;P2;SDS_P1;SDS_P2;PMS_P1;PMS_P2;Temp;Humidity;BMP_temperature;BMP_pressure;BME280_temperature;BME280_humidity;BME280_pressure;Samples;Min_cycle;Max_cycle;Signal;HPM_P1;HPM_P2
2023/05/25 00:01:29;;;;;;;;;;;;;;;10.60;53.05;98473.25;5000767;28;20550;-54
2023/05/25 00:03:59;;;;;;;;;;;;;;;10.56;53.22;98471.41;5027709;28;20285;-54
2023/05/25 00:06:28;;;;;;;;;;;;;;;10.55;53.30;98467.09;5022092;28;19989;-55
2023/05/25 00:08:56;;;;;;;;;;;;;;;10.54;53.40;98462.75;5024031;28;20400;-54
2023/05/25 00:11:26;;;;;;;;;;;;;;;10.51;53.67;98452.50;5024189;28;19951;-54
2023/05/25 00:13:54;;;;;;;;;;;;;;;10.44;53.68;98453.69;5028673;28;20325;-54
2023/05/25 00:16:22;;;;;;;;;;;;;;;10.39;53.89;98459.19;5023840;28;20049;-56
2023/05/25 00:18:49;;;;;;;;;;;;;;;10.43;54.07;98453.94;5027077;28;19939;-54
2023/05/25 00:21:19;;;;;;;;;;;;;;;10.40;54.09;98449.94;5026362;28;19940;-54
2023/05/25 00:23:47;;;;;;;;;;;;;;;10.52;54.05;98445.94;5028611;28;19935;-54
2023/05/25 00:26:14;;;;;;;;;;;;;;;10.44;53.86;98450.97;5012861;28;19960;-54
2023/05/25 00:28:43;;;;;;;;;;;;;;;10.37;54.05;98447.81;5028441;28;20363;-55
2023/05/25 00:31:11;;;;;;;;;;;;;;;10.31;54.41;98449.00;5009472;28;20420;-55
2023/05/25 00:33:39;;;;;;;;;;;;;;;10.24;54.72;98443.13;5032781;28;20376;-55
2023/05/25 00:36:07;;;;;;;;;;;;;;;10.31;54.82;98437.31;5030369;28;19932;-55
2023/05/25 00:38:36;;;;;;;;;;;;;;;10.36;54.41;98440.75;5036412;28;20276;-54
2023/05/25 00:41:05;;;;;;;;;;;;;;;10.35;54.77;98447.31;5026653;28;19938;-55
2023/05/25 00:43:33;;;;;;;;;;;;;;;10.36;54.36;98448.91;5014915;28;20027;-54
2023/05/25 00:46:02;;;;;;;;;;;;;;;10.31;54.47;98450.91;5006439;28;19987;-55
2023/05/25 00:48:30;;;;;;;;;;;;;;;10.27;54.71;98460.72;5027974;28;20833;-54
2023/05/25 00:50:59;;;;;;;;;;;;;;;10.27;54.77;98455.31;5025418;28;19936;-54
2023/05/25 00:53:27;;;;;;;;;;;;;;;10.30;54.63;98455.53;5023447;28;19942;-54
2023/05/25 00:55:57;;;;;;;;;;;;;;;10.32;54.97;98452.50;5025129;28;19932;-54
2023/05/25 00:58:27;;;;;;;;;;;;;;;10.28;54.76;98457.75;5030712;28;19981;-55
2023/05/25 01:00:55;;;;;;;;;;;;;;;10.18;55.07;98445.09;5025450;28;19960;-54
2023/05/25 01:03:27;;;;;;;;;;;;;;;10.16;55.35;98451.91;5030939;28;19979;-54
2023/05/25 01:05:55;;;;;;;;;;;;;;;10.17;55.66;98453.53;5013950;28;20047;-54
2023/05/25 01:08:23;;;;;;;;;;;;;;;10.22;55.57;98448.00;5007330;28;19935;-54
2023/05/25 01:10:52;;;;;;;;;;;;;;;10.10;55.78;98450.38;5028984;28;19942;-54
2023/05/25 01:13:20;;;;;;;;;;;;;;;10.11;55.79;98441.94;5029626;28;19970;-54
2023/05/25 01:15:48;;;;;;;;;;;;;;;9.97;56.36;98447.31;5008607;28;19983;-55
2023/05/25 01:18:16;;;;;;;;;;;;;;;9.94;56.51;98438.94;5003591;28;20416;-58
2023/05/25 01:21:11;;;;;;;;;;;;;;;10.07;56.48;98451.00;5035064;28;19963;-57
2023/05/25 01:23:42;;;;;;;;;;;;;;;9.93;56.84;98450.91;5021976;28;19958;-54
2023/05/25 01:26:11;;;;;;;;;;;;;;;9.87;57.11;98443.94;5031671;28;19994;-55
2023/05/25 01:28:41;;;;;;;;;;;;;;;9.85;56.85;98444.22;5005950;28;19974;-54
2023/05/25 01:31:08;;;;;;;;;;;;;;;9.93;56.99;98443.56;5008384;28;19956;-54
2023/05/25 01:33:36;;;;;;;;;;;;;;;9.95;56.62;98446.78;5005460;28;19983;-54
2023/05/25 01:36:04;;;;;;;;;;;;;;;10.02;56.77;98443.72;5009798;28;19958;-54
2023/05/25 01:38:32;;;;;;;;;;;;;;;9.92;56.98;98443.88;5007639;28;19986;-54
2023/05/25 01:41:02;;;;;;;;;;;;;;;9.78;57.25;98442.97;5009816;28;20429;-55
2023/05/25 01:43:30;;;;;;;;;;;;;;;9.73;57.47;98446.56;5009586;28;19943;-54
2023/05/25 01:46:02;;;;;;;;;;;;;;;9.74;57.48;98450.06;4990389;28;19954;-55
2023/05/25 01:48:39;;;;;;;;;;;;;;;9.77;57.41;98453.03;5013499;28;19939;-53
2023/05/25 01:51:11;;;;;;;;;;;;;;;9.77;57.31;98450.31;4999006;28;19939;-54
2023/05/25 01:53:40;;;;;;;;;;;;;;;9.79;57.47;98453.53;5011531;28;19951;-54
2023/05/25 01:56:10;;;;;;;;;;;;;;;9.79;57.66;98456.25;5008410;28;19932;-54
2023/05/25 01:58:38;;;;;;;;;;;;;;;9.81;57.60;98459.50;5006228;28;20349;-54
2023/05/25 02:01:07;;;;;;;;;;;;;;;9.76;58.07;98456.84;5003390;28;20038;-54
2023/05/25 02:03:35;;;;;;;;;;;;;;;9.70;58.38;98460.72;4999678;28;20006;-54
2023/05/25 02:06:03;;;;;;;;;;;;;;;9.63;58.30;98452.13;5009684;28;20453;-54
2023/05/25 02:08:34;;;;;;;;;;;;;;;9.67;58.16;98453.16;5010285;28;20336;-54
2023/05/25 02:11:03;;;;;;;;;;;;;;;9.67;58.08;98453.16;5000667;28;19935;-54
2023/05/25 02:13:32;;;;;;;;;;;;;;;9.68;57.99;98452.06;5011600;28;19955;-54
2023/05/25 02:16:00;;;;;;;;;;;;;;;9.73;57.92;98446.56;4991949;28;19925;-54
2023/05/25 02:18:28;;;;;;;;;;;;;;;9.75;57.96;98446.25;5019081;28;19936;-54
2023/05/25 02:20:55;;;;;;;;;;;;;;;9.74;57.94;98456.31;5012699;28;19968;-54
2023/05/25 02:23:24;;;;;;;;;;;;;;;9.74;57.98;98459.03;5015769;28;19937;-54
2023/05/25 02:25:53;;;;;;;;;;;;;;;9.70;58.11;98455.31;5016667;28;20377;-60
2023/05/25 02:28:23;;;;;;;;;;;;;;;9.63;58.18;98454.84;5016873;28;20050;-54
2023/05/25 02:30:53;;;;;;;;;;;;;;;9.54;58.39;98453.91;5045948;28;20388;-54
2023/05/25 02:33:20;;;;;;;;;;;;;;;9.64;58.36;98459.16;5036621;28;19950;-54
2023/05/25 02:35:49;;;;;;;;;;;;;;;9.67;58.27;98466.72;5036479;28;20278;-54
2023/05/25 02:38:17;;;;;;;;;;;;;;;9.76;58.14;98462.28;5035598;28;19990;-55
2023/05/25 02:40:45;;;;;;;;;;;;;;;9.71;58.01;98463.13;5042043;28;19932;-56
2023/05/25 02:43:13;;;;;;;;;;;;;;;9.68;58.35;98457.47;5041888;28;19944;-54
2023/05/25 02:45:40;;;;;;;;;;;;;;;9.68;58.49;98449.34;5044890;28;19947;-55
2023/05/25 02:48:10;;;;;;;;;;;;;;;9.68;58.70;98449.34;5028053;28;19967;-54
2023/05/25 02:50:37;;;;;;;;;;;;;;;9.66;58.45;98456.97;5048585;28;19932;-54
2023/05/25 02:53:10;;;;;;;;;;;;;;;9.72;58.27;98455.81;5016095;28;20042;-55
2023/05/25 02:55:39;;;;;;;;;;;;;;;9.58;59.03;98458.41;5032614;28;19944;-54
2023/05/25 02:58:09;;;;;;;;;;;;;;;9.44;59.96;98450.19;5016272;28;19943;-55
2023/05/25 03:00:53;;;;;;;;;;;;;;;9.33;60.14;98454.13;5028965;28;19969;-54
2023/05/25 03:03:22;;;;;;;;;;;;;;;9.28;60.45;98465.03;5047957;28;19932;-55
2023/05/25 03:05:50;;;;;;;;;;;;;;;9.27;60.67;98454.47;5032848;28;19936;-54
2023/05/25 03:08:18;;;;;;;;;;;;;;;9.25;60.48;98454.75;5037383;28;20034;-58
2023/05/25 03:10:46;;;;;;;;;;;;;;;9.24;60.37;98449.63;5022503;28;19929;-55
2023/05/25 03:13:13;;;;;;;;;;;;;;;9.20;60.59;98454.81;5034408;28;19952;-55
2023/05/25 03:15:42;;;;;;;;;;;;;;;9.24;60.87;98461.28;5013503;28;19959;-53
2023/05/25 03:18:10;;;;;;;;;;;;;;;9.26;60.47;98458.28;5017012;28;21612;-59
2023/05/25 03:20:40;;;;;;;;;;;;;;;9.29;60.41;98463.94;5022347;28;19935;-54
2023/05/25 03:23:08;;;;;;;;;;;;;;;9.32;60.08;98460.66;5032213;28;19954;-54
2023/05/25 03:25:37;;;;;;;;;;;;;;;9.47;59.53;98464.28;5016475;28;19948;-54
2023/05/25 03:28:05;;;;;;;;;;;;;;;9.50;59.41;98469.13;5025590;28;19955;-54
2023/05/25 03:30:32;;;;;;;;;;;;;;;9.53;59.32;98468.53;5024925;28;19968;-55
2023/05/25 03:33:00;;;;;;;;;;;;;;;9.50;59.61;98471.84;5016275;28;20409;-55
2023/05/25 03:35:34;;;;;;;;;;;;;;;9.49;59.63;98472.94;5049539;28;19935;-55
2023/05/25 03:38:03;;;;;;;;;;;;;;;9.48;60.11;98469.44;5032256;28;19935;-54
2023/05/25 03:40:31;;;;;;;;;;;;;;;9.45;60.01;98476.22;5032146;28;20363;-54
2023/05/25 03:42:58;;;;;;;;;;;;;;;9.40;60.39;98486.31;5031768;28;20027;-54
2023/05/25 03:45:26;;;;;;;;;;;;;;;9.32;60.65;98487.78;5007741;28;20034;-54
2023/05/25 03:47:54;;;;;;;;;;;;;;;9.29;60.39;98496.47;5041815;28;19967;-54
2023/05/25 03:50:22;;;;;;;;;;;;;;;9.32;60.34;98509.47;5034901;28;19939;-55
2023/05/25 03:52:50;;;;;;;;;;;;;;;9.42;60.13;98516.66;5032570;28;20420;-54
2023/05/25 03:55:19;;;;;;;;;;;;;;;9.48;59.68;98509.28;5033248;28;19939;-57
2023/05/25 03:57:47;;;;;;;;;;;;;;;9.47;59.68;98504.94;5030527;28;19974;-54
2023/05/25 04:00:15;;;;;;;;;;;;;;;9.53;59.35;98506.50;5011398;28;20034;-53
2023/05/25 04:02:43;;;;;;;;;;;;;;;9.52;59.24;98513.03;5031100;28;20421;-54
2023/05/25 04:05:11;;;;;;;;;;;;;;;9.42;59.51;98506.63;5031592;28;19966;-55
2023/05/25 04:07:39;;;;;;;;;;;;;;;9.37;60.07;98520.22;5032427;28;20042;-54
2023/05/25 04:10:07;;;;;;;;;;;;;;;9.31;59.98;98515.97;5015142;28;19932;-54
2023/05/25 04:12:37;;;;;;;;;;;;;;;9.26;60.13;98507.09;5031564;28;19985;-54
2023/05/25 04:15:07;;;;;;;;;;;;;;;9.29;59.99;98511.94;5027937;28;19987;-58
2023/05/25 04:17:46;;;;;;;;;;;;;;;9.36;59.43;98515.91;5014688;28;19955;-54
2023/05/25 04:20:14;;;;;;;;;;;;;;;9.38;59.50;98510.22;5036433;28;19936;-54
2023/05/25 04:22:43;;;;;;;;;;;;;;;9.40;59.37;98506.09;5014813;28;19975;-54
2023/05/25 04:25:12;;;;;;;;;;;;;;;9.39;59.68;98504.50;5015212;28;19981;-56
2023/05/25 04:27:41;;;;;;;;;;;;;;;9.43;59.57;98510.97;5023166;28;19963;-54
2023/05/25 04:30:12;;;;;;;;;;;;;;;9.45;59.92;98513.38;5016271;28;19943;-56
2023/05/25 04:33:01;;;;;;;;;;;;;;;9.49;59.65;98516.34;5027372;28;19955;-55
2023/05/25 04:35:49;;;;;;;;;;;;;;;9.60;59.49;98517.84;5025036;28;20277;-55
2023/05/25 04:38:19;;;;;;;;;;;;;;;9.66;59.38;98511.25;5026449;28;19943;-54
2023/05/25 04:40:47;;;;;;;;;;;;;;;9.73;59.25;98522.53;5020272;28;20427;-55
2023/05/25 04:43:19;;;;;;;;;;;;;;;9.78;59.01;98519.75;5003755;28;20367;-55
2023/05/25 04:45:50;;;;;;;;;;;;;;;9.89;59.06;98526.66;4996362;28;19955;-54
2023/05/25 04:48:18;;;;;;;;;;;;;;;9.89;58.82;98526.66;5028005;28;19940;-55
2023/05/25 04:50:46;;;;;;;;;;;;;;;9.87;58.65;98523.44;4995928;28;19932;-54
2023/05/25 04:53:14;;;;;;;;;;;;;;;9.96;58.78;98532.56;5015504;28;19948;-58
2023/05/25 04:55:42;;;;;;;;;;;;;;;9.97;58.89;98528.75;5008740;28;19979;-55
2023/05/25 04:58:12;;;;;;;;;;;;;;;9.98;59.39;98529.53;5027364;28;19955;-56
2023/05/25 05:00:43;;;;;;;;;;;;;;;10.24;58.20;98532.75;5000941;28;20010;-54
2023/05/25 05:03:12;;;;;;;;;;;;;;;10.36;57.77;98535.81;5020056;28;19940;-56
2023/05/25 05:05:40;;;;;;;;;;;;;;;10.49;57.53;98542.41;4993063;28;19939;-55
2023/05/25 05:08:11;;;;;;;;;;;;;;;10.71;56.88;98545.34;5020133;28;19940;-58
2023/05/25 05:10:39;;;;;;;;;;;;;;;10.69;56.77;98544.81;5009160;28;19943;-58
2023/05/25 05:13:07;;;;;;;;;;;;;;;10.64;57.19;98547.63;5018096;28;19929;-57
2023/05/25 05:15:35;;;;;;;;;;;;;;;10.71;57.18;98549.97;4990741;28;19921;-57
2023/05/25 05:18:05;;;;;;;;;;;;;;;10.66;56.86;98550.84;5007060;28;20123;-58
2023/05/25 05:20:33;;;;;;;;;;;;;;;10.76;56.63;98552.59;4989006;28;19960;-57
2023/05/25 05:23:00;;;;;;;;;;;;;;;10.95;56.14;98545.19;4991489;28;19945;-57
2023/05/25 05:25:28;;;;;;;;;;;;;;;11.04;56.05;98552.69;4995078;28;19929;-57
2023/05/25 05:27:57;;;;;;;;;;;;;;;11.05;55.73;98551.56;5020626;28;20334;-57
2023/05/25 05:30:31;;;;;;;;;;;;;;;11.02;56.43;98556.53;4993800;28;19963;-65
2023/05/25 05:32:59;;;;;;;;;;;;;;;11.02;55.97;98559.25;4997412;28;20399;-57
2023/05/25 05:35:32;;;;;;;;;;;;;;;11.02;55.87;98556.53;4993901;28;20456;-57
2023/05/25 05:38:07;;;;;;;;;;;;;;;10.98;55.73;98547.34;5000594;28;19936;-57
2023/05/25 05:40:35;;;;;;;;;;;;;;;10.96;55.41;98554.97;5002361;28;19944;-57
2023/05/25 05:43:03;;;;;;;;;;;;;;;10.99;55.64;98548.94;5010469;28;19982;-58
2023/05/25 05:45:30;;;;;;;;;;;;;;;11.18;55.75;98558.94;5006917;28;20286;-61
2023/05/25 05:47:58;;;;;;;;;;;;;;;11.42;55.33;98559.59;5025590;28;19987;-57
2023/05/25 05:50:27;;;;;;;;;;;;;;;11.54;54.62;98548.22;5015232;28;19986;-58
2023/05/25 05:52:56;;;;;;;;;;;;;;;11.73;53.44;98561.75;5017001;28;19932;-57
2023/05/25 05:55:25;;;;;;;;;;;;;;;11.83;53.10;98561.56;5019003;28;20451;-58
2023/05/25 05:57:53;;;;;;;;;;;;;;;11.90;53.09;98558.44;5030826;28;19935;-58
2023/05/25 06:00:22;;;;;;;;;;;;;;;12.04;53.17;98562.75;5016301;28;19947;-58
2023/05/25 06:02:51;;;;;;;;;;;;;;;12.13;52.69;98564.75;5009513;28;19980;-57
2023/05/25 06:05:21;;;;;;;;;;;;;;;12.10;52.38;98562.66;5033468;28;19943;-57
2023/05/25 06:07:52;;;;;;;;;;;;;;;12.03;52.51;98563.84;5006456;28;19967;-58
2023/05/25 06:10:23;;;;;;;;;;;;;;;12.10;52.70;98559.94;5028414;28;20305;-58
2023/05/25 06:12:51;;;;;;;;;;;;;;;12.13;52.59;98564.75;5015670;28;19932;-57
2023/05/25 06:15:19;;;;;;;;;;;;;;;12.10;52.77;98557.22;5010380;28;20400;-58
2023/05/25 06:17:49;;;;;;;;;;;;;;;12.11;52.63;98554.16;5031058;28;19971;-58
2023/05/25 06:20:17;;;;;;;;;;;;;;;12.09;52.51;98552.84;5018823;28;19947;-58
2023/05/25 06:22:46;;;;;;;;;;;;;;;12.11;52.78;98553.38;5003593;28;19971;-57
2023/05/25 06:25:14;;;;;;;;;;;;;;;12.18;52.74;98551.81;5000026;28;19962;-58
2023/05/25 06:27:43;;;;;;;;;;;;;;;12.18;53.03;98556.47;5004256;28;20002;-57
2023/05/25 06:30:12;;;;;;;;;;;;;;;12.29;52.37;98563.31;4997477;28;20248;-58
2023/05/25 06:32:42;;;;;;;;;;;;;;;12.45;52.24;98572.75;5006672;28;19983;-58
2023/05/25 06:35:16;;;;;;;;;;;;;;;12.67;51.66;98566.50;5009254;28;20033;-59
2023/05/25 06:37:44;;;;;;;;;;;;;;;12.61;52.03;98573.19;5005711;28;19933;-57
2023/05/25 06:40:12;;;;;;;;;;;;;;;12.66;52.33;98566.81;5015456;28;19952;-58
2023/05/25 06:42:40;;;;;;;;;;;;;;;12.77;51.36;98574.44;5016792;28;20371;-58
2023/05/25 06:45:28;;;;;;;;;;;;;;;12.86;51.11;98569.06;4995113;28;19922;-58
2023/05/25 06:47:59;;;;;;;;;;;;;;;12.86;50.88;98569.06;5003786;28;20004;-58
2023/05/25 06:50:27;;;;;;;;;;;;;;;13.15;50.11;98562.34;5015080;28;19932;-57
2023/05/25 06:52:55;;;;;;;;;;;;;;;13.27;49.71;98563.44;5016289;28;19974;-58
2023/05/25 06:55:25;;;;;;;;;;;;;;;13.50;50.24;98563.38;5017140;28;20397;-58
2023/05/25 06:57:53;;;;;;;;;;;;;;;13.73;48.67;98566.84;5016635;28;19939;-58
2023/05/25 07:00:21;;;;;;;;;;;;;;;13.76;48.76;98566.22;5011070;28;19936;-58
2023/05/25 07:02:50;;;;;;;;;;;;;;;13.87;48.82;98564.81;5013782;28;19978;-58
2023/05/25 07:09:03;;;;;;;;;;;;;;;14.26;47.40;98555.72;5265001;23;19925;-74
2023/05/25 07:11:31;;;;;;;;;;;;;;;14.45;47.73;98563.63;5032311;28;19932;-74
2023/05/25 07:13:59;;;;;;;;;;;;;;;14.57;46.73;98546.63;5052694;28;20024;-76
2023/05/25 07:16:27;;;;;;;;;;;;;;;14.72;46.69;98548.06;5030782;28;20012;-76
2023/05/25 07:18:56;;;;;;;;;;;;;;;14.96;45.88;98551.06;5038766;28;20452;-75
2023/05/25 07:21:26;;;;;;;;;;;;;;;15.04;46.46;98542.06;5033796;28;19968;-74
2023/05/25 07:23:54;;;;;;;;;;;;;;;15.09;45.20;98546.56;5059715;28;19925;-78
2023/05/25 07:26:24;;;;;;;;;;;;;;;15.08;45.20;98548.50;5048336;28;19959;-79
2023/05/25 07:28:52;;;;;;;;;;;;;;;15.08;44.65;98548.50;5055602;28;19935;-79
2023/05/25 07:31:20;;;;;;;;;;;;;;;15.19;44.22;98541.56;5076153;28;19969;-79
2023/05/25 07:33:47;;;;;;;;;;;;;;;15.27;44.61;98547.31;5067296;28;20438;-75
2023/05/25 07:36:17;;;;;;;;;;;;;;;15.44;45.04;98555.47;5053047;28;19955;-75
2023/05/25 07:38:45;;;;;;;;;;;;;;;15.63;44.88;98555.91;5046211;28;20066;-75
2023/05/25 07:41:13;;;;;;;;;;;;;;;15.79;44.10;98552.63;5036655;28;20038;-76
2023/05/25 07:43:41;;;;;;;;;;;;;;;15.84;43.55;98557.94;5044081;28;19981;-78
2023/05/25 07:46:09;;;;;;;;;;;;;;;15.95;43.37;98556.41;5064143;28;19954;-77
2023/05/25 07:48:36;;;;;;;;;;;;;;;16.03;43.34;98557.50;5045823;28;20431;-76
2023/05/25 07:51:04;;;;;;;;;;;;;;;16.13;43.37;98563.41;5039594;28;19986;-75
2023/05/25 07:53:34;;;;;;;;;;;;;;;16.20;42.90;98566.44;5053655;28;19947;-76
2023/05/25 07:56:02;;;;;;;;;;;;;;;16.28;43.40;98563.97;5055426;28;19993;-77
2023/05/25 07:58:30;;;;;;;;;;;;;;;16.35;42.71;98566.97;5052508;28;19943;-77
2023/05/25 08:00:58;;;;;;;;;;;;;;;16.39;43.36;98560.47;5043614;28;19946;-78
2023/05/25 08:03:28;;;;;;;;;;;;;;;16.50;42.21;98571.88;5053195;28;20424;-77
2023/05/25 08:06:14;;;;;;;;;;;;;;;16.64;41.63;98571.59;5049113;28;19974;-77
2023/05/25 08:08:44;;;;;;;;;;;;;;;16.64;41.31;98566.91;5060056;28;20053;-77
2023/05/25 08:11:12;;;;;;;;;;;;;;;16.70;42.14;98559.28;5048164;28;19935;-78
2023/05/25 08:13:40;;;;;;;;;;;;;;;16.77;41.56;98574.09;5055731;28;19940;-78
2023/05/25 08:16:07;;;;;;;;;;;;;;;16.73;41.50;98564.94;5033783;28;19959;-77
2023/05/25 08:18:35;;;;;;;;;;;;;;;16.72;41.85;98565.25;5043491;28;19985;-76
2023/05/25 08:21:03;;;;;;;;;;;;;;;16.60;41.58;98565.97;5032637;28;20387;-76
2023/05/25 08:23:34;;;;;;;;;;;;;;;16.57;42.01;98560.38;5051258;28;19940;-76
2023/05/25 08:26:03;;;;;;;;;;;;;;;16.67;43.04;98565.44;5056582;28;19941;-76
2023/05/25 08:28:42;;;;;;;;;;;;;;;16.95;42.24;98568.47;5032356;28;19993;-75
2023/05/25 08:31:10;;;;;;;;;;;;;;;17.07;41.54;98557.53;5046554;28;19955;-75
2023/05/25 08:33:38;;;;;;;;;;;;;;;17.31;41.52;98567.78;5052419;28;19974;-74
2023/05/25 08:36:08;;;;;;;;;;;;;;;17.34;41.28;98549.81;5052020;28;19958;-73
2023/05/25 08:38:35;;;;;;;;;;;;;;;17.29;40.35;98557.13;5052413;28;19925;-76
2023/05/25 08:41:05;;;;;;;;;;;;;;;17.39;40.76;98555.09;5047926;28;19943;-76
2023/05/25 08:43:33;;;;;;;;;;;;;;;17.38;40.53;98556.25;5052914;28;20042;-76
2023/05/25 08:46:03;;;;;;;;;;;;;;;17.37;40.66;98543.66;5040280;28;20108;-76
2023/05/25 08:48:31;;;;;;;;;;;;;;;17.58;40.94;98558.13;5048740;28;20393;-79
2023/05/25 08:51:08;;;;;;;;;;;;;;;17.61;40.38;98554.66;5080150;28;20042;-80
2023/05/25 08:53:38;;;;;;;;;;;;;;;17.68;40.43;98554.91;5069005;28;19943;-76
2023/05/25 08:56:08;;;;;;;;;;;;;;;17.76;40.19;98553.22;5052158;28;19951;-76
2023/05/25 08:58:39;;;;;;;;;;;;;;;17.84;39.85;98559.75;5049337;28;20041;-76
2023/05/25 09:01:08;;;;;;;;;;;;;;;17.88;39.59;98569.72;5046902;28;19959;-76
2023/05/25 09:03:36;;;;;;;;;;;;;;;17.75;39.83;98557.94;5034421;28;19979;-76
2023/05/25 09:06:04;;;;;;;;;;;;;;;17.67;39.99;98564.28;5053691;28;20397;-76
2023/05/25 09:08:32;;;;;;;;;;;;;;;17.75;40.40;98568.91;5049597;28;19963;-76
2023/05/25 09:11:01;;;;;;;;;;;;;;;17.93;39.81;98576.94;5024458;28;19939;-76
2023/05/25 09:13:30;;;;;;;;;;;;;;;17.76;39.75;98566.97;5052867;28;19940;-76
2023/05/25 09:15:57;;;;;;;;;;;;;;;17.83;39.99;98564.44;5045959;28;20475;-76
2023/05/25 09:18:25;;;;;;;;;;;;;;;17.73;39.89;98564.88;5053518;28;19939;-76
2023/05/25 09:20:53;;;;;;;;;;;;;;;17.85;39.93;98570.41;5042842;28;19939;-76
2023/05/25 09:23:22;;;;;;;;;;;;;;;17.94;39.82;98557.34;5059072;23;19950;-59
2023/05/25 09:25:50;;;;;;;;;;;;;;;18.16;39.68;98564.31;5073480;28;19977;-60
2023/05/25 09:28:18;;;;;;;;;;;;;;;18.33;39.41;98569.59;5070535;28;19935;-59
2023/05/25 09:30:55;;;;;;;;;;;;;;;18.44;38.87;98563.59;5066314;28;20015;-59
2023/05/25 09:33:26;;;;;;;;;;;;;;;18.46;39.20;98564.84;5070697;28;20021;-59
2023/05/25 09:35:54;;;;;;;;;;;;;;;18.50;39.26;98568.50;5053117;28;19981;-59
2023/05/25 09:38:22;;;;;;;;;;;;;;;18.50;39.44;98529.19;5064602;28;20050;-60
2023/05/25 09:40:50;;;;;;;;;;;;;;;18.71;38.90;98567.59;5052152;28;19940;-59
2023/05/25 09:43:20;;;;;;;;;;;;;;;18.70;38.86;98555.78;5064391;28;19932;-60
2023/05/25 09:46:07;;;;;;;;;;;;;;;18.75;38.92;98555.53;5062085;28;19928;-59
2023/05/25 09:48:36;;;;;;;;;;;;;;;18.77;38.94;98549.66;5073249;28;20010;-61
2023/05/25 09:51:05;;;;;;;;;;;;;;;18.81;39.13;98551.38;5072332;28;19920;-57
2023/05/25 09:53:35;;;;;;;;;;;;;;;18.83;39.45;98560.06;5070565;28;19932;-58
2023/05/25 09:56:03;;;;;;;;;;;;;;;18.90;39.11;98558.66;5063858;28;19956;-57
2023/05/25 09:58:31;;;;;;;;;;;;;;;18.96;38.77;98562.75;5069864;28;19924;-58
2023/05/25 10:00:59;;;;;;;;;;;;;;;18.93;39.20;98560.72;5059856;28;19966;-58
2023/05/25 10:03:29;;;;;;;;;;;;;;;18.87;38.99;98553.88;5061610;28;19927;-58
2023/05/25 10:05:56;;;;;;;;;;;;;;;18.76;39.09;98562.63;5064413;28;19968;-58
2023/05/25 10:08:25;;;;;;;;;;;;;;;18.86;39.21;98557.78;5047612;28;20324;-58
2023/05/25 10:10:56;;;;;;;;;;;;;;;18.94;39.72;98556.81;5062288;28;20317;-59
2023/05/25 10:13:24;;;;;;;;;;;;;;;19.05;39.52;98561.47;5057016;28;19975;-58
2023/05/25 10:15:53;;;;;;;;;;;;;;;19.24;39.07;98569.06;5063790;28;19920;-59
2023/05/25 10:18:21;;;;;;;;;;;;;;;19.22;38.67;98565.84;5067128;28;20039;-61
2023/05/25 10:20:51;;;;;;;;;;;;;;;19.29;38.52;98555.03;5064838;28;19920;-58
2023/05/25 10:23:24;;;;;;;;;;;;;;;19.31;38.68;98558.22;5066174;28;19962;-58
2023/05/25 10:25:53;;;;;;;;;;;;;;;19.34;38.47;98557.53;5065652;28;19931;-58
2023/05/25 10:28:22;;;;;;;;;;;;;;;19.27;38.28;98551.03;5052676;28;20326;-59
2023/05/25 10:30:49;;;;;;;;;;;;;;;19.33;38.83;98557.88;5066999;28;19959;-58
2023/05/25 10:33:18;;;;;;;;;;;;;;;19.54;38.59;98563.16;5062474;28;20016;-60
2023/05/25 10:35:45;;;;;;;;;;;;;;;19.68;38.36;98560.00;5055184;28;20403;-57
2023/05/25 10:38:31;;;;;;;;;;;;;;;19.75;38.35;98558.19;5069889;28;19950;-57
2023/05/25 10:40:59;;;;;;;;;;;;;;;19.89;37.80;98558.56;5066030;28;19953;-57
2023/05/25 10:43:27;;;;;;;;;;;;;;;19.87;38.15;98555.38;5058879;28;19961;-58
2023/05/25 10:45:55;;;;;;;;;;;;;;;19.96;38.04;98554.38;5053143;28;20028;-57
2023/05/25 10:48:24;;;;;;;;;;;;;;;19.98;37.88;98557.59;5064974;28;19989;-57
2023/05/25 10:50:52;;;;;;;;;;;;;;;20.04;37.83;98545.91;5069610;28;20388;-60
2023/05/25 10:53:20;;;;;;;;;;;;;;;20.01;38.33;98545.81;5045821;28;19936;-58
2023/05/25 10:56:02;;;;;;;;;;;;;;;20.01;37.85;98546.63;5059015;28;19976;-57
2023/05/25 10:58:30;;;;;;;;;;;;;;;20.03;38.28;98549.03;5070662;28;20370;-57
2023/05/25 11:00:58;;;;;;;;;;;;;;;20.03;37.53;98551.78;5057536;28;20499;-57
2023/05/25 11:03:45;;;;;;;;;;;;;;;20.15;37.50;98551.69;5071243;28;19955;-57
2023/05/25 11:06:14;;;;;;;;;;;;;;;20.18;38.08;98548.19;5073037;28;20288;-58
2023/05/25 11:08:48;;;;;;;;;;;;;;;20.15;37.75;98546.16;5067353;28;19931;-57
2023/05/25 11:11:17;;;;;;;;;;;;;;;20.23;37.28;98541.59;5062987;28;19932;-58
2023/05/25 11:13:45;;;;;;;;;;;;;;;20.17;37.32;98543.84;5069516;28;19947;-57
2023/05/25 11:16:17;;;;;;;;;;;;;;;20.11;37.40;98537.78;5061296;28;19921;-57
2023/05/25 11:18:46;;;;;;;;;;;;;;;20.17;37.48;98541.06;5070837;28;19947;-57
2023/05/25 11:21:14;;;;;;;;;;;;;;;20.08;37.61;98532.19;5072870;28;19988;-57
2023/05/25 11:23:55;;;;;;;;;;;;;;;20.06;37.33;98534.50;5071608;28;20001;-57
2023/05/25 11:26:29;;;;;;;;;;;;;;;20.12;37.89;98541.34;5075325;28;19938;-57
2023/05/25 11:28:57;;;;;;;;;;;;;;;20.18;37.83;98531.63;5075213;28;20029;-57
2023/05/25 11:31:29;;;;;;;;;;;;;;;20.39;37.47;98536.84;5064514;28;19947;-60
2023/05/25 11:34:00;;;;;;;;;;;;;;;20.39;36.85;98539.59;5063376;28;19959;-57
2023/05/25 11:36:30;;;;;;;;;;;;;;;20.49;36.92;98541.81;5053105;28;19935;-57
2023/05/25 11:39:00;;;;;;;;;;;;;;;20.61;37.24;98540.88;5069263;28;19957;-59
2023/05/25 11:41:35;;;;;;;;;;;;;;;20.56;36.31;98524.59;5070821;28;20351;-57
2023/05/25 11:44:03;;;;;;;;;;;;;;;20.66;37.90;98524.03;5072715;28;19920;-57
2023/05/25 11:46:33;;;;;;;;;;;;;;;20.65;37.45;98520.47;5062711;28;20510;-58
2023/05/25 11:49:01;;;;;;;;;;;;;;;20.68;36.44;98527.25;5069123;28;20054;-58
2023/05/25 11:51:30;;;;;;;;;;;;;;;20.62;36.21;98535.00;5063699;28;19982;-58
2023/05/25 11:53:59;;;;;;;;;;;;;;;20.60;36.52;98523.50;5050887;28;20388;-57
2023/05/25 11:56:27;;;;;;;;;;;;;;;20.54;36.30;98518.66;5061112;28;20023;-60
2023/05/25 11:59:03;;;;;;;;;;;;;;;20.60;36.25;98522.72;5070659;28;19989;-58
2023/05/25 12:01:31;;;;;;;;;;;;;;;20.63;36.41;98527.53;5066837;28;20012;-58
2023/05/25 12:04:04;;;;;;;;;;;;;;;20.64;36.09;98523.59;5070963;28;19984;-58
2023/05/25 12:06:35;;;;;;;;;;;;;;;20.67;36.16;98520.13;5071256;28;20388;-57
2023/05/25 12:09:05;;;;;;;;;;;;;;;20.70;35.93;98516.63;5068307;28;19931;-57
2023/05/25 12:11:33;;;;;;;;;;;;;;;20.71;36.16;98501.66;5063610;28;19930;-58
2023/05/25 12:14:01;;;;;;;;;;;;;;;20.81;37.16;98517.63;5058508;28;19950;-58
2023/05/25 12:16:31;;;;;;;;;;;;;;;20.90;36.07;98514.66;5054732;28;20388;-60
2023/05/25 12:18:59;;;;;;;;;;;;;;;20.97;35.61;98514.78;5067405;28;19950;-59
2023/05/25 12:21:27;;;;;;;;;;;;;;;21.04;35.37;98511.34;5068586;28;19936;-59
2023/05/25 12:23:55;;;;;;;;;;;;;;;20.92;34.94;98509.56;5070240;28;19997;-60
2023/05/25 12:26:25;;;;;;;;;;;;;;;20.83;34.89;98509.81;5070213;28;19931;-59
2023/05/25 12:28:59;;;;;;;;;;;;;;;20.84;35.12;98502.31;5067918;28;19935;-59
2023/05/25 12:31:28;;;;;;;;;;;;;;;20.88;34.85;98495.69;5046190;28;19951;-59
2023/05/25 12:34:05;;;;;;;;;;;;;;;20.95;35.50;98503.31;5050583;28;19939;-59
2023/05/25 12:36:39;;;;;;;;;;;;;;;21.02;35.17;98497.91;5066416;28;20299;-59
2023/05/25 12:39:08;;;;;;;;;;;;;;;21.17;34.57;98490.69;5051005;28;19946;-59
2023/05/25 12:41:46;;;;;;;;;;;;;;;21.19;34.91;98493.88;5069094;28;19981;-60
2023/05/25 12:44:17;;;;;;;;;;;;;;;21.17;34.98;98493.47;5061834;28;19934;-59
2023/05/25 12:46:45;;;;;;;;;;;;;;;21.21;34.33;98486.03;5040028;28;20026;-59
2023/05/25 12:49:25;;;;;;;;;;;;;;;21.14;34.30;98481.16;5047435;28;20034;-60
2023/05/25 12:51:53;;;;;;;;;;;;;;;21.27;35.83;98484.56;5060276;28;20002;-62
2023/05/25 12:54:34;;;;;;;;;;;;;;;21.39;34.59;98483.59;5056558;28;19955;-59
2023/05/25 12:57:02;;;;;;;;;;;;;;;21.40;34.16;98479.66;5067151;28;19938;-60
2023/05/25 12:59:30;;;;;;;;;;;;;;;21.33;35.05;98477.59;5056797;28;20368;-58
2023/05/25 13:01:58;;;;;;;;;;;;;;;21.16;34.92;98483.56;5064329;28;20133;-62
2023/05/25 13:04:28;;;;;;;;;;;;;;;20.88;35.08;98481.09;5067082;28;19965;-62
2023/05/25 13:06:55;;;;;;;;;;;;;;;21.13;34.81;98484.28;5041167;28;19966;-60